createdAt,value
2022-11-12T00:01:15.618Z,103126.91
2022-11-12T00:04:00.881Z,103117.03
2022-11-12T00:06:46.173Z,103119.91
2022-11-12T00:09:31.135Z,103110.19
2022-11-12T00:12:16.502Z,103122.13
2022-11-12T00:15:01.672Z,103135.91
2022-11-12T00:17:46.681Z,103139.78
2022-11-12T00:20:31.829Z,103135.38
2022-11-12T00:23:17.214Z,103143.84
2022-11-12T00:26:03.591Z,103147.25
2022-11-12T00:28:48.840Z,103137.72
2022-11-12T00:31:34.509Z,103138.91
2022-11-12T00:34:19.807Z,103140.06
2022-11-12T00:37:05.522Z,103146.16
2022-11-12T00:39:50.422Z,103143.59
2022-11-12T00:42:35.734Z,103143.41
2022-11-12T00:45:21.194Z,103148.50
2022-11-12T00:48:06.372Z,103139.69
2022-11-12T00:50:51.467Z,103134.41
2022-11-12T00:53:36.776Z,103129.44
2022-11-12T00:56:21.596Z,103135.72
2022-11-12T00:59:06.874Z,103138.09
2022-11-12T01:01:52.208Z,103130.09
2022-11-12T01:04:37.519Z,103124.25
2022-11-12T01:07:22.896Z,103145.91
2022-11-12T01:10:09.303Z,103138.22
2022-11-12T01:12:54.747Z,103139.22
2022-11-12T01:15:42.975Z,103132.25
2022-11-12T01:18:28.147Z,103144.00
2022-11-12T01:21:14.302Z,103145.47
2022-11-12T01:24:01.279Z,103140.50
2022-11-12T01:26:47.702Z,103129.81
2022-11-12T01:29:32.780Z,103126.06
2022-11-12T01:32:17.834Z,103126.94
2022-11-12T01:35:02.827Z,103127.59
2022-11-12T01:37:48.057Z,103120.09
2022-11-12T01:40:33.015Z,103123.31
2022-11-12T01:43:18.113Z,103121.09
2022-11-12T01:46:15.187Z,103130.09
2022-11-12T01:49:04.210Z,103121.72
2022-11-12T01:51:51.992Z,103120.03
2022-11-12T01:54:38.351Z,103115.28
2022-11-12T01:57:35.368Z,103124.91
2022-11-12T02:00:20.385Z,103108.09
2022-11-12T02:03:11.465Z,103111.84
2022-11-12T02:06:07.744Z,103122.84
2022-11-12T02:08:53.511Z,103113.00
2022-11-12T02:11:38.445Z,103117.88
2022-11-12T02:14:23.518Z,103110.41
2022-11-12T02:17:08.446Z,103107.16
2022-11-12T02:19:53.495Z,103107.44
2022-11-12T02:22:38.800Z,103113.44
2022-11-12T02:25:24.919Z,103108.59
2022-11-12T02:28:10.167Z,103108.59
2022-11-12T02:30:55.427Z,103111.78
2022-11-12T02:33:40.373Z,103110.63
2022-11-12T02:36:25.614Z,103108.38
2022-11-12T02:39:10.807Z,103112.09
2022-11-12T02:41:55.956Z,103120.38
2022-11-12T02:44:41.206Z,103116.13
2022-11-12T02:47:26.626Z,103114.28
2022-11-12T02:50:12.486Z,103097.91
2022-11-12T02:52:57.399Z,103108.47
2022-11-12T02:55:43.367Z,103112.81
2022-11-12T02:58:29.421Z,103106.38
2022-11-12T03:01:14.885Z,103104.22
2022-11-12T03:04:00.349Z,103092.97
2022-11-12T03:06:45.252Z,103093.13
2022-11-12T03:09:30.369Z,103094.28
2022-11-12T03:12:15.593Z,103095.13
2022-11-12T03:15:00.932Z,103112.06
2022-11-12T03:17:46.104Z,103096.78
2022-11-12T03:20:31.210Z,103096.09
2022-11-12T03:23:16.294Z,103099.63
2022-11-12T03:26:03.115Z,103097.25
2022-11-12T03:28:48.242Z,103102.34
2022-11-12T03:31:33.401Z,103102.84
2022-11-12T03:34:18.699Z,103099.09
2022-11-12T03:37:03.669Z,103111.00
2022-11-12T03:39:48.952Z,103108.56
2022-11-12T03:42:34.140Z,103104.84
2022-11-12T03:45:21.564Z,103114.00
2022-11-12T03:48:07.018Z,103102.78
2022-11-12T03:50:52.156Z,103107.88
2022-11-12T03:53:37.206Z,103108.19
2022-11-12T03:56:22.182Z,103113.63
2022-11-12T03:59:07.414Z,103108.56
2022-11-12T04:01:52.560Z,103120.06
2022-11-12T04:04:56.089Z,103119.91
2022-11-12T04:07:59.887Z,103116.34
2022-11-12T04:10:45.320Z,103117.78
2022-11-12T04:13:30.709Z,103105.09
2022-11-12T04:16:37.439Z,103110.66
2022-11-12T04:19:41.244Z,103101.19
2022-11-12T04:22:26.707Z,103104.78
2022-11-12T04:25:30.704Z,103103.22
2022-11-12T04:28:15.911Z,103094.56
2022-11-12T04:31:00.854Z,103075.56
2022-11-12T04:33:45.695Z,103080.59
2022-11-12T04:36:30.691Z,103084.31
2022-11-12T04:39:15.898Z,103080.38
2022-11-12T04:42:19.634Z,103088.97
2022-11-12T04:45:09.856Z,103088.13
2022-11-12T04:47:55.055Z,103086.56
2022-11-12T04:50:41.407Z,103086.88
2022-11-12T04:53:29.476Z,103080.63
2022-11-12T04:56:14.665Z,103071.75
2022-11-12T04:58:59.525Z,103073.06
2022-11-12T05:01:44.575Z,103073.94
2022-11-12T05:04:29.931Z,103070.38
2022-11-12T05:07:16.119Z,103071.22
2022-11-12T05:10:00.952Z,103070.53
2022-11-12T05:12:45.936Z,103074.25
2022-11-12T05:15:31.048Z,103059.97
2022-11-12T05:18:16.206Z,103064.41
2022-11-12T05:21:21.190Z,103062.84
2022-11-12T05:24:06.400Z,103064.72
2022-11-12T05:26:51.727Z,103059.06
2022-11-12T05:29:36.819Z,103052.34
2022-11-12T05:32:21.949Z,103055.88
2022-11-12T05:35:07.320Z,103055.50
2022-11-12T05:37:52.154Z,103050.06
2022-11-12T05:40:37.350Z,103047.50
2022-11-12T05:43:22.206Z,103048.69
2022-11-12T05:46:07.240Z,103047.69
2022-11-12T05:48:52.489Z,103041.84
2022-11-12T05:51:37.686Z,103038.28
2022-11-12T05:54:24.858Z,103044.56
2022-11-12T05:57:09.819Z,103043.56
2022-11-12T05:59:54.983Z,103049.75
2022-11-12T06:02:39.896Z,103058.44
2022-11-12T06:05:24.761Z,103060.13
2022-11-12T06:08:10.645Z,103061.41
2022-11-12T06:10:56.043Z,103055.56
2022-11-12T06:13:41.172Z,103051.28
2022-11-12T06:16:26.408Z,103050.03
2022-11-12T06:19:11.679Z,103059.75
2022-11-12T06:21:56.689Z,103057.63
2022-11-12T06:24:42.215Z,103062.19
2022-11-12T06:27:27.492Z,103063.50
2022-11-12T06:30:12.796Z,103058.25
2022-11-12T06:32:58.207Z,103056.84
2022-11-12T06:35:43.432Z,103063.97
2022-11-12T06:38:32.900Z,103071.69
2022-11-12T06:41:18.172Z,103067.97
2022-11-12T06:44:04.673Z,103057.72
2022-11-12T06:46:50.052Z,103063.16
2022-11-12T06:49:35.439Z,103055.75
2022-11-12T06:52:20.558Z,103066.47
2022-11-12T06:55:06.000Z,103069.72
2022-11-12T06:57:52.989Z,103060.72
2022-11-12T07:00:37.984Z,103068.34
2022-11-12T07:03:23.015Z,103068.53
2022-11-12T07:06:14.863Z,103077.13
2022-11-12T07:09:00.211Z,103074.19
2022-11-12T07:11:45.631Z,103079.91
2022-11-12T07:14:30.756Z,103079.19
2022-11-12T07:17:15.843Z,103079.75
2022-11-12T07:20:03.928Z,103078.50
2022-11-12T07:22:48.993Z,103068.78
2022-11-12T07:25:33.878Z,103072.66
2022-11-12T07:28:18.804Z,103072.47
2022-11-12T07:31:06.565Z,103082.44
2022-11-12T07:33:51.784Z,103082.31
2022-11-12T07:36:36.933Z,103085.44
2022-11-12T07:39:22.067Z,103079.28
2022-11-12T07:42:07.064Z,103084.72
2022-11-12T07:44:52.437Z,103082.72
2022-11-12T07:47:37.611Z,103094.97
2022-11-12T07:50:22.837Z,103088.69
2022-11-12T07:53:07.862Z,103086.66
2022-11-12T07:55:57.107Z,103087.84
2022-11-12T07:58:42.110Z,103100.47
2022-11-12T08:01:33.417Z,103103.03
2022-11-12T08:04:18.907Z,103105.97
2022-11-12T08:07:04.237Z,103102.25
2022-11-12T08:09:49.314Z,103110.25
2022-11-12T08:12:34.312Z,103111.25
2022-11-12T08:15:19.591Z,103124.34
2022-11-12T08:18:04.966Z,103120.47
2022-11-12T08:20:50.148Z,103114.75
2022-11-12T08:23:35.460Z,103122.41
2022-11-12T08:26:21.331Z,103117.84
2022-11-12T08:29:08.526Z,103116.84
2022-11-12T08:31:54.057Z,103122.19
2022-11-12T08:34:41.253Z,103117.63
2022-11-12T08:37:26.353Z,103111.75
2022-11-12T08:40:12.125Z,103116.19
2022-11-12T08:42:59.766Z,103119.56
2022-11-12T08:45:44.639Z,103115.22
2022-11-12T08:48:30.568Z,103120.81
2022-11-12T08:51:15.822Z,103128.50
2022-11-12T08:54:01.148Z,103124.63
2022-11-12T08:56:46.545Z,103126.69
2022-11-12T08:59:31.812Z,103133.53
2022-11-12T09:02:16.829Z,103135.78
2022-11-12T09:05:02.270Z,103127.16
2022-11-12T09:07:50.264Z,103127.72
2022-11-12T09:10:37.097Z,103117.47
2022-11-12T09:13:22.450Z,103117.31
2022-11-12T09:16:09.098Z,103125.81
2022-11-12T09:18:54.080Z,103116.34
2022-11-12T09:21:38.962Z,103131.09
2022-11-12T09:24:24.065Z,103119.69
2022-11-12T09:27:09.164Z,103127.22
2022-11-12T09:29:54.120Z,103124.66
2022-11-12T09:32:39.327Z,103127.91
2022-11-12T09:35:24.159Z,103124.28
2022-11-12T09:38:09.167Z,103127.91
2022-11-12T09:41:05.626Z,103118.09
2022-11-12T09:43:54.201Z,103122.19
2022-11-12T09:46:45.193Z,103125.97
2022-11-12T09:49:43.262Z,103125.13
2022-11-12T09:52:30.207Z,103124.66
2022-11-12T09:55:30.601Z,103125.19
2022-11-12T09:58:18.533Z,103122.84
2022-11-12T10:01:21.849Z,103130.19
2022-11-12T10:04:15.839Z,103122.59
2022-11-12T10:07:14.075Z,103120.38
2022-11-12T10:10:23.752Z,103112.94
2022-11-12T10:13:08.614Z,103110.75
2022-11-12T10:16:44.496Z,103109.91
2022-11-12T10:19:47.959Z,103105.34
2022-11-12T10:22:56.169Z,103103.81
2022-11-12T10:25:44.722Z,103109.59
2022-11-12T10:29:00.825Z,103105.19
2022-11-12T10:31:45.890Z,103090.56
2022-11-12T10:34:31.218Z,103101.78
2022-11-12T10:37:31.004Z,103099.22
2022-11-12T10:40:24.834Z,103099.88
2022-11-12T10:43:22.972Z,103098.03
2022-11-12T10:46:26.765Z,103099.38
2022-11-12T10:49:14.759Z,103098.84
2022-11-12T10:51:59.789Z,103074.50
2022-11-12T10:54:45.081Z,103077.03
2022-11-12T10:57:30.408Z,103077.66
2022-11-12T11:00:21.485Z,103081.41
2022-11-12T11:03:22.840Z,103072.03
2022-11-12T11:06:21.934Z,103070.84
2022-11-12T11:09:12.867Z,103070.75
2022-11-12T11:11:58.040Z,103058.97
2022-11-12T11:14:44.485Z,103063.81
2022-11-12T11:17:29.979Z,103064.09
2022-11-12T11:20:25.411Z,103059.47
2022-11-12T11:23:24.041Z,103069.28
2022-11-12T11:26:24.191Z,103069.06
2022-11-12T11:29:29.882Z,103069.88
2022-11-12T11:32:37.420Z,103065.06
2022-11-12T11:35:37.983Z,103059.00
2022-11-12T11:38:50.372Z,103055.34
2022-11-12T11:42:00.134Z,103055.28
2022-11-12T11:45:02.985Z,103058.06
2022-11-12T11:48:01.736Z,103054.78
2022-11-12T11:51:00.060Z,103035.75
2022-11-12T11:54:15.298Z,103038.69
2022-11-12T11:57:03.966Z,103032.13
2022-11-12T12:00:07.152Z,103029.94
2022-11-12T12:03:31.719Z,103033.97
2022-11-12T12:06:26.263Z,103018.31
2022-11-12T12:09:31.966Z,103023.34
2022-11-12T12:12:17.172Z,103019.41
2022-11-12T12:15:20.948Z,103021.47
2022-11-12T12:18:20.049Z,103019.47
2022-11-12T12:21:14.230Z,103011.59
2022-11-12T12:24:10.280Z,103010.00
2022-11-12T12:27:17.104Z,103008.41
2022-11-12T12:30:03.782Z,102994.38
2022-11-12T12:32:58.011Z,102991.25
2022-11-12T12:36:03.398Z,102984.75
2022-11-12T12:38:51.439Z,102976.56
2022-11-12T12:41:56.872Z,102989.03
2022-11-12T12:45:04.386Z,102980.03
2022-11-12T12:47:51.242Z,102980.72
2022-11-12T12:50:39.960Z,102985.63
2022-11-12T12:53:24.803Z,102967.06
2022-11-12T12:56:12.745Z,102975.56
2022-11-12T12:59:03.470Z,102977.69
2022-11-12T13:02:03.745Z,102974.78
2022-11-12T13:04:54.899Z,102970.00
2022-11-12T13:07:49.589Z,102962.13
2022-11-12T13:10:44.447Z,102952.03
2022-11-12T13:13:32.841Z,102959.72
2022-11-12T13:16:51.984Z,102960.34
2022-11-12T13:19:53.512Z,102948.97
2022-11-12T13:22:38.319Z,102945.22
2022-11-12T13:25:31.653Z,102949.25
2022-11-12T13:28:16.794Z,102947.59
2022-11-12T13:31:03.537Z,102941.28
2022-11-12T13:33:49.408Z,102930.31
2022-11-12T13:36:34.805Z,102934.34
2022-11-12T13:39:21.152Z,102944.69
2022-11-12T13:42:37.093Z,102935.19
2022-11-12T13:45:26.775Z,102943.84
2022-11-12T13:48:25.085Z,102932.09
2022-11-12T13:51:33.617Z,102931.00
2022-11-12T13:54:29.490Z,102939.28
2022-11-12T13:57:34.666Z,102926.41
2022-11-12T14:00:27.914Z,102936.97
2022-11-12T14:03:18.167Z,102933.81
2022-11-12T14:06:14.613Z,102930.88
2022-11-12T14:09:27.599Z,102927.91
2022-11-12T14:12:45.625Z,102937.00
2022-11-12T14:15:53.189Z,102940.63
2022-11-12T14:19:07.866Z,102939.16
2022-11-12T14:22:17.426Z,102934.72
2022-11-12T14:25:03.766Z,102941.06
2022-11-12T14:27:56.149Z,102933.06
2022-11-12T14:30:44.960Z,102935.59
2022-11-12T14:33:32.231Z,102923.56
2022-11-12T14:36:21.268Z,102924.19
2022-11-12T14:39:06.636Z,102913.38
2022-11-12T14:41:52.742Z,102912.13
2022-11-12T14:44:38.398Z,102905.16
2022-11-12T14:47:24.168Z,102910.22
2022-11-12T14:50:15.995Z,102924.56
2022-11-12T14:53:04.993Z,102915.28
2022-11-12T14:55:53.122Z,102917.78
2022-11-12T14:58:39.809Z,102922.25
2022-11-12T15:02:14.514Z,102916.50
2022-11-12T15:04:40.910Z,102916.94
2022-11-12T15:07:51.483Z,102917.59
2022-11-12T15:10:42.121Z,102915.63
2022-11-12T15:13:27.873Z,102913.75
2022-11-12T15:16:20.981Z,102916.25
2022-11-12T15:19:23.192Z,102917.13
2022-11-12T15:22:19.099Z,102911.00
2022-11-12T15:25:26.389Z,102909.31
2022-11-12T15:28:22.773Z,102915.00
2022-11-12T15:31:21.165Z,102913.06
2022-11-12T15:34:41.655Z,102904.44
2022-11-12T15:37:31.210Z,102898.50
2022-11-12T15:40:19.561Z,102897.66
2022-11-12T15:43:12.723Z,102903.13
2022-11-12T15:45:58.227Z,102904.16
2022-11-12T15:48:43.671Z,102892.94
2022-11-12T15:51:28.602Z,102902.00
2022-11-12T15:54:13.722Z,102897.38
2022-11-12T15:56:58.728Z,102897.53
2022-11-12T15:59:45.062Z,102890.75
2022-11-12T16:02:30.625Z,102885.03
2022-11-12T16:05:17.172Z,102897.88
2022-11-12T16:08:02.188Z,102889.66
2022-11-12T16:10:48.502Z,102881.59
2022-11-12T16:13:34.227Z,102879.47
2022-11-12T16:16:19.351Z,102873.09
2022-11-12T16:19:04.330Z,102873.56
2022-11-12T16:21:49.160Z,102878.78
2022-11-12T16:24:34.375Z,102875.47
2022-11-12T16:27:20.425Z,102877.94
2022-11-12T16:30:14.391Z,102884.44
2022-11-12T16:33:00.815Z,102877.47
2022-11-12T16:35:46.149Z,102875.38
2022-11-12T16:38:31.208Z,102867.13
2022-11-12T16:41:16.529Z,102876.13
2022-11-12T16:44:01.711Z,102882.69
2022-11-12T16:46:46.956Z,102873.78
2022-11-12T16:49:38.283Z,102869.56
2022-11-12T16:52:23.784Z,102879.94
2022-11-12T16:55:09.755Z,102877.53
2022-11-12T16:57:55.120Z,102877.97
2022-11-12T17:00:46.740Z,102883.19
2022-11-12T17:03:31.804Z,102877.97
2022-11-12T17:06:17.191Z,102877.13
2022-11-12T17:09:04.284Z,102872.47
2022-11-12T17:11:49.161Z,102875.44
2022-11-12T17:14:35.643Z,102871.78
2022-11-12T17:17:20.818Z,102872.06
2022-11-12T17:20:06.587Z,102874.59
2022-11-12T17:22:51.670Z,102870.75
2022-11-12T17:25:36.782Z,102866.13
2022-11-12T17:28:21.834Z,102865.69
2022-11-12T17:31:13.077Z,102859.94
2022-11-12T17:33:58.182Z,102863.72
2022-11-12T17:36:44.107Z,102852.97
2022-11-12T17:39:29.158Z,102865.19
2022-11-12T17:42:14.394Z,102860.66
2022-11-12T17:44:59.455Z,102856.88
2022-11-12T17:47:44.671Z,102852.44
2022-11-12T17:50:29.642Z,102852.00
2022-11-12T17:53:15.086Z,102845.44
2022-11-12T17:56:00.390Z,102847.66
2022-11-12T17:58:47.083Z,102850.38
2022-11-12T18:01:33.604Z,102857.28
2022-11-12T18:04:18.929Z,102857.69
2022-11-12T18:07:04.427Z,102853.84
2022-11-12T18:09:49.475Z,102854.22
2022-11-12T18:12:34.639Z,102847.22
2022-11-12T18:15:20.141Z,102857.56
2022-11-12T18:18:05.609Z,102853.50
2022-11-12T18:20:50.913Z,102853.69
2022-11-12T18:23:40.765Z,102854.44
2022-11-12T18:26:25.978Z,102855.91
2022-11-12T18:29:11.902Z,102862.47
2022-11-12T18:31:57.000Z,102859.91
2022-11-12T18:34:44.975Z,102859.16
2022-11-12T18:37:29.839Z,102862.50
2022-11-12T18:40:15.460Z,102859.13
2022-11-12T18:43:00.593Z,102854.56
2022-11-12T18:45:53.763Z,102859.59
2022-11-12T18:48:40.220Z,102854.13
2022-11-12T18:51:25.611Z,102848.75
2022-11-12T18:54:10.994Z,102851.31
2022-11-12T18:56:56.278Z,102852.75
2022-11-12T18:59:41.237Z,102863.22
2022-11-12T19:02:26.340Z,102857.06
2022-11-12T19:05:11.575Z,102848.41
2022-11-12T19:07:56.731Z,102847.09
2022-11-12T19:10:41.782Z,102848.13
2022-11-12T19:13:27.478Z,102854.66
2022-11-12T19:16:16.902Z,102856.34
2022-11-12T19:19:02.119Z,102839.88
2022-11-12T19:21:48.730Z,102840.72
2022-11-12T19:24:33.720Z,102844.00
2022-11-12T19:27:18.970Z,102842.25
2022-11-12T19:30:05.889Z,102842.25
2022-11-12T19:32:51.175Z,102839.69
2022-11-12T19:35:39.693Z,102843.66
2022-11-12T19:38:24.922Z,102829.53
2022-11-12T19:41:18.780Z,102833.22
2022-11-12T19:44:04.676Z,102829.44
2022-11-12T19:46:49.821Z,102825.59
2022-11-12T19:49:34.802Z,102829.00
2022-11-12T19:52:19.974Z,102836.03
2022-11-12T19:55:05.797Z,102833.88
2022-11-12T19:57:51.212Z,102832.16
2022-11-12T20:00:37.307Z,102832.75
2022-11-12T20:03:25.009Z,102824.84
2022-11-12T20:06:15.397Z,102835.03
2022-11-12T20:09:00.596Z,102826.16
2022-11-12T20:11:46.030Z,102826.91
2022-11-12T20:14:31.436Z,102830.69
2022-11-12T20:17:16.609Z,102821.72
2022-11-12T20:20:01.823Z,102824.91
2022-11-12T20:22:46.856Z,102831.78
2022-11-12T20:25:31.784Z,102834.72
2022-11-12T20:28:16.771Z,102826.06
2022-11-12T20:33:55.711Z,102832.47
2022-11-12T20:36:40.543Z,102824.44
2022-11-12T20:39:25.644Z,102812.38
2022-11-12T20:42:10.897Z,102814.94
2022-11-12T20:44:55.906Z,102811.34
2022-11-12T20:47:40.930Z,102806.91
2022-11-12T20:50:26.380Z,102807.84
2022-11-12T20:53:12.594Z,102809.72
2022-11-12T20:56:18.793Z,102803.72
2022-11-12T20:59:03.974Z,102799.41
2022-11-12T21:01:49.106Z,102798.25
2022-11-12T21:04:34.236Z,102800.50
2022-11-12T21:07:19.433Z,102793.34
2022-11-12T21:10:04.811Z,102800.19
2022-11-12T21:12:49.778Z,102793.63
2022-11-12T21:15:34.761Z,102786.94
2022-11-12T21:18:20.014Z,102789.19
2022-11-12T21:21:13.769Z,102791.06
2022-11-12T21:24:04.409Z,102782.59
2022-11-12T21:26:49.939Z,102783.44
2022-11-12T21:29:34.742Z,102776.84
2022-11-12T21:32:19.698Z,102780.78
2022-11-12T21:35:05.197Z,102782.00
2022-11-12T21:37:51.462Z,102777.41
2022-11-12T21:40:36.336Z,102780.28
2022-11-12T21:43:21.781Z,102775.22
2022-11-12T21:46:08.903Z,102790.25
2022-11-12T21:48:55.527Z,102783.94
2022-11-12T21:51:40.923Z,102771.84
2022-11-12T21:54:25.803Z,102775.22
2022-11-12T21:57:14.807Z,102775.53
2022-11-12T22:00:39.064Z,102769.69
2022-11-12T22:03:08.400Z,102762.59
2022-11-12T22:05:53.332Z,102749.44
2022-11-12T22:08:38.880Z,102762.69
2022-11-12T22:11:24.111Z,102747.34
2022-11-12T22:14:09.226Z,102758.44
2022-11-12T22:16:54.501Z,102758.25
2022-11-12T22:19:39.650Z,102752.81
2022-11-12T22:22:25.246Z,102739.47
2022-11-12T22:25:10.462Z,102741.25
2022-11-12T22:27:55.766Z,102748.97
2022-11-12T22:30:40.937Z,102758.56
2022-11-12T22:33:26.861Z,102743.91
2022-11-12T22:36:17.543Z,102745.09
2022-11-12T22:39:04.775Z,102741.44
2022-11-12T22:41:49.700Z,102737.22
2022-11-12T22:44:35.015Z,102731.28
2022-11-12T22:47:20.210Z,102732.88
2022-11-12T22:50:05.651Z,102730.34
2022-11-12T22:52:50.599Z,102728.66
2022-11-12T22:55:35.869Z,102736.53
2022-11-12T22:58:21.434Z,102735.88
2022-11-12T23:01:09.758Z,102724.69
2022-11-12T23:03:57.040Z,102727.09
2022-11-12T23:06:42.298Z,102717.59
2022-11-12T23:09:27.284Z,102720.69
2022-11-12T23:12:12.422Z,102712.91
2022-11-12T23:14:57.443Z,102716.28
2022-11-12T23:17:42.346Z,102697.94
2022-11-12T23:20:27.339Z,102706.00
2022-11-12T23:23:12.346Z,102704.47
2022-11-12T23:26:24.899Z,102713.13
2022-11-12T23:29:13.114Z,102699.06
2022-11-12T23:31:58.451Z,102709.97
2022-11-12T23:34:43.330Z,102708.06
2022-11-12T23:37:28.261Z,102701.59
2022-11-12T23:40:13.330Z,102699.53
2022-11-12T23:42:58.210Z,102702.44
2022-11-12T23:45:43.214Z,102687.66
2022-11-12T23:48:28.832Z,102703.31
2022-11-12T23:51:17.128Z,102703.84
2022-11-12T23:54:02.321Z,102688.75
2022-11-12T23:56:47.188Z,102696.88
2022-11-12T23:59:32.278Z,102685.38
